sensor_id;sensor_type;location;lat;lon;timestamp;temperature;humidity
9837;DHT22;4957;51.412;6.724;2023-02-23T00:00:25;11.20;99.90
9837;DHT22;4957;51.412;6.724;2023-02-23T00:02:58;11.20;99.90
9837;DHT22;4957;51.412;6.724;2023-02-23T00:05:29;11.20;99.90
9837;DHT22;4957;51.412;6.724;2023-02-23T00:07:55;11.20;99.90
9837;DHT22;4957;51.412;6.724;2023-02-23T00:10:21;11.30;99.90
9837;DHT22;4957;51.412;6.724;2023-02-23T00:12:58;11.20;99.90
9837;DHT22;4957;51.412;6.724;2023-02-23T00:15:27;11.20;99.90
9837;DHT22;4957;51.412;6.724;2023-02-23T00:17:55;11.20;99.90
9837;DHT22;4957;51.412;6.724;2023-02-23T00:20:22;11.20;99.90
9837;DHT22;4957;51.412;6.724;2023-02-23T00:22:53;11.20;99.90
9837;DHT22;4957;51.412;6.724;2023-02-23T00:25:19;11.20;99.90
9837;DHT22;4957;51.412;6.724;2023-02-23T00:27:45;11.20;99.90
9837;DHT22;4957;51.412;6.724;2023-02-23T00:30:12;11.20;99.90
9837;DHT22;4957;51.412;6.724;2023-02-23T00:32:37;11.20;99.90
9837;DHT22;4957;51.412;6.724;2023-02-23T00:35:04;11.20;99.90
9837;DHT22;4957;51.412;6.724;2023-02-23T00:37:34;11.20;99.90
9837;DHT22;4957;51.412;6.724;2023-02-23T00:39:59;11.20;99.90
9837;DHT22;4957;51.412;6.724;2023-02-23T00:42:25;11.20;99.90
9837;DHT22;4957;51.412;6.724;2023-02-23T00:44:56;11.20;99.90
9837;DHT22;4957;51.412;6.724;2023-02-23T00:47:22;11.20;99.90
9837;DHT22;4957;51.412;6.724;2023-02-23T00:49:47;11.20;99.90
9837;DHT22;4957;51.412;6.724;2023-02-23T00:52:13;11.10;99.90
9837;DHT22;4957;51.412;6.724;2023-02-23T00:54:39;11.20;99.90
9837;DHT22;4957;51.412;6.724;2023-02-23T00:57:05;11.10;99.90
9837;DHT22;4957;51.412;6.724;2023-02-23T00:59:31;11.10;99.90
9837;DHT22;4957;51.412;6.724;2023-02-23T01:01:56;11.10;99.90
9837;DHT22;4957;51.412;6.724;2023-02-23T01:04:22;11.10;99.90
9837;DHT22;4957;51.412;6.724;2023-02-23T01:06:47;11.10;99.90
9837;DHT22;4957;51.412;6.724;2023-02-23T01:09:15;11.10;99.90
9837;DHT22;4957;51.412;6.724;2023-02-23T01:11:52;11.10;99.90
9837;DHT22;4957;51.412;6.724;2023-02-23T01:14:18;11.10;99.90
9837;DHT22;4957;51.412;6.724;2023-02-23T01:16:43;11.10;99.90
9837;DHT22;4957;51.412;6.724;2023-02-23T01:19:09;11.10;99.90
9837;DHT22;4957;51.412;6.724;2023-02-23T01:21:37;11.10;99.90
9837;DHT22;4957;51.412;6.724;2023-02-23T01:24:03;11.10;99.90
9837;DHT22;4957;51.412;6.724;2023-02-23T01:26:34;11.10;99.90
9837;DHT22;4957;51.412;6.724;2023-02-23T01:29:05;11.10;99.90
9837;DHT22;4957;51.412;6.724;2023-02-23T01:31:33;11.10;99.90
9837;DHT22;4957;51.412;6.724;2023-02-23T01:34:01;11.10;99.90
9837;DHT22;4957;51.412;6.724;2023-02-23T01:36:27;11.10;99.90
9837;DHT22;4957;51.412;6.724;2023-02-23T01:38:54;11.10;99.90
9837;DHT22;4957;51.412;6.724;2023-02-23T01:41:22;11.10;99.90
9837;DHT22;4957;51.412;6.724;2023-02-23T01:46:44;11.00;99.90
9837;DHT22;4957;51.412;6.724;2023-02-23T01:49:17;11.00;99.90
9837;DHT22;4957;51.412;6.724;2023-02-23T01:54:27;11.00;99.90
9837;DHT22;4957;51.412;6.724;2023-02-23T01:56:58;11.00;99.90
9837;DHT22;4957;51.412;6.724;2023-02-23T01:59:29;11.00;99.90
9837;DHT22;4957;51.412;6.724;2023-02-23T02:01:59;11.00;99.90
9837;DHT22;4957;51.412;6.724;2023-02-23T02:04:24;11.00;99.90
9837;DHT22;4957;51.412;6.724;2023-02-23T02:06:52;11.00;99.90
9837;DHT22;4957;51.412;6.724;2023-02-23T02:09:21;10.90;99.90
9837;DHT22;4957;51.412;6.724;2023-02-23T02:11:50;11.00;99.90
9837;DHT22;4957;51.412;6.724;2023-02-23T02:25:15;11.00;99.90
9837;DHT22;4957;51.412;6.724;2023-02-23T02:42:00;10.90;99.90
9837;DHT22;4957;51.412;6.724;2023-02-23T02:44:51;10.90;99.90
9837;DHT22;4957;51.412;6.724;2023-02-23T02:47:28;10.90;99.90
9837;DHT22;4957;51.412;6.724;2023-02-23T02:50:06;10.90;99.90
9837;DHT22;4957;51.412;6.724;2023-02-23T02:52:40;10.80;99.90
9837;DHT22;4957;51.412;6.724;2023-02-23T02:55:18;10.90;99.90
9837;DHT22;4957;51.412;6.724;2023-02-23T02:57:49;10.80;99.90
9837;DHT22;4957;51.412;6.724;2023-02-23T03:00:18;10.90;99.90
9837;DHT22;4957;51.412;6.724;2023-02-23T03:03:03;10.90;99.90
9837;DHT22;4957;51.412;6.724;2023-02-23T03:05:49;10.80;99.90
9837;DHT22;4957;51.412;6.724;2023-02-23T03:08:51;10.80;99.90
9837;DHT22;4957;51.412;6.724;2023-02-23T03:21:24;10.80;99.90
9837;DHT22;4957;51.412;6.724;2023-02-23T03:24:22;10.80;99.90
9837;DHT22;4957;51.412;6.724;2023-02-23T03:27:19;10.80;99.90
9837;DHT22;4957;51.412;6.724;2023-02-23T03:30:18;10.80;99.90
9837;DHT22;4957;51.412;6.724;2023-02-23T03:33:14;10.80;99.90
9837;DHT22;4957;51.412;6.724;2023-02-23T03:39:23;10.80;99.90
9837;DHT22;4957;51.412;6.724;2023-02-23T03:42:14;10.80;99.90
9837;DHT22;4957;51.412;6.724;2023-02-23T03:45:07;10.80;99.90
9837;DHT22;4957;51.412;6.724;2023-02-23T03:47:54;10.80;99.90
9837;DHT22;4957;51.412;6.724;2023-02-23T03:50:44;10.80;99.90
9837;DHT22;4957;51.412;6.724;2023-02-23T03:53:40;10.80;99.90
9837;DHT22;4957;51.412;6.724;2023-02-23T03:56:26;10.80;99.90
9837;DHT22;4957;51.412;6.724;2023-02-23T03:59:13;10.80;99.90
9837;DHT22;4957;51.412;6.724;2023-02-23T04:01:59;10.80;99.90
9837;DHT22;4957;51.412;6.724;2023-02-23T04:04:45;10.80;99.90
9837;DHT22;4957;51.412;6.724;2023-02-23T04:07:31;10.80;99.90
9837;DHT22;4957;51.412;6.724;2023-02-23T04:10:16;10.70;99.90
9837;DHT22;4957;51.412;6.724;2023-02-23T04:13:06;10.70;99.90
9837;DHT22;4957;51.412;6.724;2023-02-23T04:16:07;10.70;99.90
9837;DHT22;4957;51.412;6.724;2023-02-23T04:18:36;10.70;99.90
9837;DHT22;4957;51.412;6.724;2023-02-23T04:21:03;10.70;99.90
9837;DHT22;4957;51.412;6.724;2023-02-23T04:23:29;10.70;99.90
9837;DHT22;4957;51.412;6.724;2023-02-23T04:25:55;10.70;99.90
9837;DHT22;4957;51.412;6.724;2023-02-23T04:28:24;10.70;99.90
9837;DHT22;4957;51.412;6.724;2023-02-23T04:30:50;10.70;99.90
9837;DHT22;4957;51.412;6.724;2023-02-23T04:33:17;10.70;99.90
9837;DHT22;4957;51.412;6.724;2023-02-23T04:35:43;10.70;99.90
9837;DHT22;4957;51.412;6.724;2023-02-23T04:38:08;10.70;99.90
9837;DHT22;4957;51.412;6.724;2023-02-23T04:40:34;10.70;99.90
9837;DHT22;4957;51.412;6.724;2023-02-23T04:43:00;10.70;99.90
9837;DHT22;4957;51.412;6.724;2023-02-23T04:45:26;10.70;99.90
9837;DHT22;4957;51.412;6.724;2023-02-23T04:47:52;10.60;99.90
9837;DHT22;4957;51.412;6.724;2023-02-23T04:50:18;10.70;99.90
9837;DHT22;4957;51.412;6.724;2023-02-23T04:52:44;10.70;99.90
9837;DHT22;4957;51.412;6.724;2023-02-23T04:55:19;10.70;99.90
9837;DHT22;4957;51.412;6.724;2023-02-23T04:57:45;10.70;99.90
9837;DHT22;4957;51.412;6.724;2023-02-23T05:00:12;10.70;99.90
9837;DHT22;4957;51.412;6.724;2023-02-23T05:02:38;10.70;99.90
9837;DHT22;4957;51.412;6.724;2023-02-23T05:05:04;10.70;99.90
9837;DHT22;4957;51.412;6.724;2023-02-23T05:07:31;10.60;99.90
9837;DHT22;4957;51.412;6.724;2023-02-23T05:09:57;10.60;99.90
9837;DHT22;4957;51.412;6.724;2023-02-23T05:12:22;10.60;99.90
9837;DHT22;4957;51.412;6.724;2023-02-23T05:14:48;10.60;99.90
9837;DHT22;4957;51.412;6.724;2023-02-23T05:17:14;10.70;99.90
9837;DHT22;4957;51.412;6.724;2023-02-23T05:19:39;10.60;99.90
9837;DHT22;4957;51.412;6.724;2023-02-23T05:22:05;10.60;99.90
9837;DHT22;4957;51.412;6.724;2023-02-23T05:24:31;10.60;99.90
9837;DHT22;4957;51.412;6.724;2023-02-23T05:26:57;10.60;99.90
9837;DHT22;4957;51.412;6.724;2023-02-23T05:29:23;10.60;99.90
9837;DHT22;4957;51.412;6.724;2023-02-23T05:31:49;10.60;99.90
9837;DHT22;4957;51.412;6.724;2023-02-23T05:34:15;10.60;99.90
9837;DHT22;4957;51.412;6.724;2023-02-23T05:36:43;10.60;99.90
9837;DHT22;4957;51.412;6.724;2023-02-23T05:39:09;10.60;99.90
9837;DHT22;4957;51.412;6.724;2023-02-23T05:41:34;10.60;99.90
9837;DHT22;4957;51.412;6.724;2023-02-23T05:44:00;10.60;99.90
9837;DHT22;4957;51.412;6.724;2023-02-23T05:46:26;10.60;99.90
9837;DHT22;4957;51.412;6.724;2023-02-23T05:48:59;10.60;99.90
9837;DHT22;4957;51.412;6.724;2023-02-23T05:51:27;10.60;99.90
9837;DHT22;4957;51.412;6.724;2023-02-23T05:53:53;10.60;99.90
9837;DHT22;4957;51.412;6.724;2023-02-23T05:56:19;10.50;99.90
9837;DHT22;4957;51.412;6.724;2023-02-23T05:58:50;10.50;99.90
9837;DHT22;4957;51.412;6.724;2023-02-23T06:01:16;10.50;99.90
9837;DHT22;4957;51.412;6.724;2023-02-23T06:03:42;10.50;99.90
9837;DHT22;4957;51.412;6.724;2023-02-23T06:06:08;10.50;99.90
9837;DHT22;4957;51.412;6.724;2023-02-23T06:08:34;10.50;99.90
9837;DHT22;4957;51.412;6.724;2023-02-23T06:11:00;10.50;99.90
9837;DHT22;4957;51.412;6.724;2023-02-23T06:13:25;10.50;99.90
9837;DHT22;4957;51.412;6.724;2023-02-23T06:15:52;10.50;99.90
9837;DHT22;4957;51.412;6.724;2023-02-23T06:18:17;10.50;99.90
9837;DHT22;4957;51.412;6.724;2023-02-23T06:20:44;10.50;99.90
9837;DHT22;4957;51.412;6.724;2023-02-23T06:23:10;10.50;99.90
9837;DHT22;4957;51.412;6.724;2023-02-23T06:25:37;10.50;99.90
9837;DHT22;4957;51.412;6.724;2023-02-23T06:28:03;10.50;99.90
9837;DHT22;4957;51.412;6.724;2023-02-23T06:30:29;10.50;99.90
9837;DHT22;4957;51.412;6.724;2023-02-23T06:32:54;10.50;99.90
9837;DHT22;4957;51.412;6.724;2023-02-23T06:35:20;10.50;99.90
9837;DHT22;4957;51.412;6.724;2023-02-23T06:37:46;10.50;99.90
9837;DHT22;4957;51.412;6.724;2023-02-23T06:40:12;10.50;99.90
9837;DHT22;4957;51.412;6.724;2023-02-23T06:42:37;10.50;99.90
9837;DHT22;4957;51.412;6.724;2023-02-23T06:45:03;10.50;99.90
9837;DHT22;4957;51.412;6.724;2023-02-23T06:47:29;10.50;99.90
9837;DHT22;4957;51.412;6.724;2023-02-23T06:49:55;10.50;99.90
9837;DHT22;4957;51.412;6.724;2023-02-23T06:52:21;10.50;99.90
9837;DHT22;4957;51.412;6.724;2023-02-23T06:54:49;10.50;99.90
9837;DHT22;4957;51.412;6.724;2023-02-23T06:57:15;10.50;99.90
9837;DHT22;4957;51.412;6.724;2023-02-23T06:59:41;10.50;99.90
9837;DHT22;4957;51.412;6.724;2023-02-23T07:02:09;10.50;99.90
9837;DHT22;4957;51.412;6.724;2023-02-23T07:04:35;10.40;99.90
9837;DHT22;4957;51.412;6.724;2023-02-23T07:07:00;10.40;99.90
9837;DHT22;4957;51.412;6.724;2023-02-23T07:09:27;10.50;99.90
9837;DHT22;4957;51.412;6.724;2023-02-23T07:11:52;10.50;99.90
9837;DHT22;4957;51.412;6.724;2023-02-23T07:14:18;10.40;99.90
9837;DHT22;4957;51.412;6.724;2023-02-23T07:16:44;10.40;99.90
9837;DHT22;4957;51.412;6.724;2023-02-23T07:19:09;10.40;99.90
9837;DHT22;4957;51.412;6.724;2023-02-23T07:21:35;10.40;99.90
9837;DHT22;4957;51.412;6.724;2023-02-23T07:24:01;10.40;99.90
9837;DHT22;4957;51.412;6.724;2023-02-23T07:26:29;10.50;99.90
9837;DHT22;4957;51.412;6.724;2023-02-23T07:28:55;10.40;99.90
9837;DHT22;4957;51.412;6.724;2023-02-23T07:31:20;10.40;99.90
9837;DHT22;4957;51.412;6.724;2023-02-23T07:34:08;10.40;99.90
9837;DHT22;4957;51.412;6.724;2023-02-23T07:36:39;10.40;99.90
9837;DHT22;4957;51.412;6.724;2023-02-23T07:39:07;10.40;99.90
9837;DHT22;4957;51.412;6.724;2023-02-23T07:41:34;10.40;99.90
9837;DHT22;4957;51.412;6.724;2023-02-23T07:43:59;10.40;99.90
9837;DHT22;4957;51.412;6.724;2023-02-23T07:46:25;10.40;99.90
9837;DHT22;4957;51.412;6.724;2023-02-23T07:48:52;10.40;99.90
9837;DHT22;4957;51.412;6.724;2023-02-23T07:51:17;10.50;99.90
9837;DHT22;4957;51.412;6.724;2023-02-23T07:53:43;10.50;99.90
9837;DHT22;4957;51.412;6.724;2023-02-23T07:56:10;10.50;99.90
9837;DHT22;4957;51.412;6.724;2023-02-23T07:58:37;10.50;99.90
9837;DHT22;4957;51.412;6.724;2023-02-23T08:01:04;10.50;99.90
9837;DHT22;4957;51.412;6.724;2023-02-23T08:03:30;10.50;99.90
9837;DHT22;4957;51.412;6.724;2023-02-23T08:05:56;10.50;99.90
9837;DHT22;4957;51.412;6.724;2023-02-23T08:08:22;10.60;99.90
9837;DHT22;4957;51.412;6.724;2023-02-23T08:10:48;10.60;99.90
9837;DHT22;4957;51.412;6.724;2023-02-23T08:13:15;10.60;99.90
9837;DHT22;4957;51.412;6.724;2023-02-23T08:15:41;10.60;99.90
9837;DHT22;4957;51.412;6.724;2023-02-23T08:18:07;10.60;99.90
9837;DHT22;4957;51.412;6.724;2023-02-23T08:20:32;10.60;99.90
9837;DHT22;4957;51.412;6.724;2023-02-23T08:22:58;10.60;99.90
9837;DHT22;4957;51.412;6.724;2023-02-23T08:25:24;10.60;99.90
9837;DHT22;4957;51.412;6.724;2023-02-23T08:27:52;10.60;99.90
9837;DHT22;4957;51.412;6.724;2023-02-23T08:30:22;10.60;99.90
9837;DHT22;4957;51.412;6.724;2023-02-23T08:32:49;10.60;99.90
9837;DHT22;4957;51.412;6.724;2023-02-23T08:35:17;10.70;99.90
9837;DHT22;4957;51.412;6.724;2023-02-23T08:37:44;10.70;99.90
9837;DHT22;4957;51.412;6.724;2023-02-23T08:40:10;10.60;99.90
9837;DHT22;4957;51.412;6.724;2023-02-23T08:42:40;10.70;99.90
9837;DHT22;4957;51.412;6.724;2023-02-23T08:45:06;10.70;99.90
9837;DHT22;4957;51.412;6.724;2023-02-23T08:47:32;10.80;99.90
9837;DHT22;4957;51.412;6.724;2023-02-23T08:49:59;10.80;99.90
9837;DHT22;4957;51.412;6.724;2023-02-23T08:52:24;10.80;99.90
9837;DHT22;4957;51.412;6.724;2023-02-23T08:54:50;10.80;99.90
9837;DHT22;4957;51.412;6.724;2023-02-23T08:57:16;10.80;99.90
9837;DHT22;4957;51.412;6.724;2023-02-23T08:59:42;10.90;99.90
9837;DHT22;4957;51.412;6.724;2023-02-23T09:02:12;10.90;99.90
9837;DHT22;4957;51.412;6.724;2023-02-23T09:04:38;10.90;99.90
9837;DHT22;4957;51.412;6.724;2023-02-23T09:07:07;11.00;99.90
9837;DHT22;4957;51.412;6.724;2023-02-23T09:09:33;11.00;99.90
9837;DHT22;4957;51.412;6.724;2023-02-23T09:11:59;11.00;99.90
9837;DHT22;4957;51.412;6.724;2023-02-23T09:14:25;11.00;99.90
9837;DHT22;4957;51.412;6.724;2023-02-23T09:16:51;11.10;99.90
9837;DHT22;4957;51.412;6.724;2023-02-23T09:19:17;11.10;99.90
9837;DHT22;4957;51.412;6.724;2023-02-23T09:21:43;11.10;99.90
9837;DHT22;4957;51.412;6.724;2023-02-23T09:24:09;11.10;99.90
9837;DHT22;4957;51.412;6.724;2023-02-23T09:26:34;11.10;99.90
9837;DHT22;4957;51.412;6.724;2023-02-23T09:29:05;11.20;99.90
9837;DHT22;4957;51.412;6.724;2023-02-23T09:31:31;11.20;99.90
9837;DHT22;4957;51.412;6.724;2023-02-23T09:33:57;11.20;99.90
9837;DHT22;4957;51.412;6.724;2023-02-23T09:36:25;11.20;99.90
9837;DHT22;4957;51.412;6.724;2023-02-23T09:38:53;11.20;99.90
9837;DHT22;4957;51.412;6.724;2023-02-23T09:49:24;11.30;99.90
9837;DHT22;4957;51.412;6.724;2023-02-23T09:51:55;11.30;99.90
9837;DHT22;4957;51.412;6.724;2023-02-23T09:54:25;11.40;99.90
9837;DHT22;4957;51.412;6.724;2023-02-23T09:56:52;11.30;99.90
9837;DHT22;4957;51.412;6.724;2023-02-23T09:59:23;11.40;99.90
9837;DHT22;4957;51.412;6.724;2023-02-23T10:04:45;11.40;99.90
9837;DHT22;4957;51.412;6.724;2023-02-23T10:16:06;11.50;99.90
9837;DHT22;4957;51.412;6.724;2023-02-23T10:21:40;11.60;99.90
9837;DHT22;4957;51.412;6.724;2023-02-23T10:26:45;11.60;99.90
9837;DHT22;4957;51.412;6.724;2023-02-23T10:29:30;11.60;99.90
9837;DHT22;4957;51.412;6.724;2023-02-23T10:32:04;11.60;99.90
9837;DHT22;4957;51.412;6.724;2023-02-23T10:34:31;11.60;99.90
9837;DHT22;4957;51.412;6.724;2023-02-23T10:37:02;11.60;99.90
9837;DHT22;4957;51.412;6.724;2023-02-23T10:39:29;11.60;99.90
9837;DHT22;4957;51.412;6.724;2023-02-23T10:41:58;11.60;99.90
9837;DHT22;4957;51.412;6.724;2023-02-23T10:44:26;11.60;99.90
9837;DHT22;4957;51.412;6.724;2023-02-23T10:47:22;11.60;99.90
9837;DHT22;4957;51.412;6.724;2023-02-23T10:49:50;11.70;99.90
9837;DHT22;4957;51.412;6.724;2023-02-23T10:52:37;11.60;99.90
9837;DHT22;4957;51.412;6.724;2023-02-23T10:55:07;11.60;99.90
9837;DHT22;4957;51.412;6.724;2023-02-23T10:57:35;11.60;99.90
9837;DHT22;4957;51.412;6.724;2023-02-23T11:00:21;11.60;99.90
9837;DHT22;4957;51.412;6.724;2023-02-23T11:02:52;11.60;99.90
9837;DHT22;4957;51.412;6.724;2023-02-23T11:05:35;11.60;99.90
9837;DHT22;4957;51.412;6.724;2023-02-23T11:11:16;11.60;99.90
9837;DHT22;4957;51.412;6.724;2023-02-23T11:13:48;11.60;99.90
9837;DHT22;4957;51.412;6.724;2023-02-23T11:16:20;11.60;99.90
9837;DHT22;4957;51.412;6.724;2023-02-23T11:18:55;11.60;99.90
9837;DHT22;4957;51.412;6.724;2023-02-23T11:21:47;11.60;99.90
9837;DHT22;4957;51.412;6.724;2023-02-23T11:24:27;11.60;99.90
9837;DHT22;4957;51.412;6.724;2023-02-23T11:26:58;11.60;99.90
9837;DHT22;4957;51.412;6.724;2023-02-23T11:29:39;11.60;99.90
9837;DHT22;4957;51.412;6.724;2023-02-23T11:34:40;11.70;99.90
9837;DHT22;4957;51.412;6.724;2023-02-23T11:39:58;11.70;99.90
9837;DHT22;4957;51.412;6.724;2023-02-23T11:42:29;11.70;99.90
9837;DHT22;4957;51.412;6.724;2023-02-23T11:45:05;11.70;99.90
9837;DHT22;4957;51.412;6.724;2023-02-23T11:47:32;11.70;99.90
9837;DHT22;4957;51.412;6.724;2023-02-23T11:49:59;11.70;99.90
9837;DHT22;4957;51.412;6.724;2023-02-23T11:52:26;11.70;99.90
9837;DHT22;4957;51.412;6.724;2023-02-23T11:55:05;11.70;99.90
9837;DHT22;4957;51.412;6.724;2023-02-23T11:57:34;11.70;99.90
9837;DHT22;4957;51.412;6.724;2023-02-23T12:00:07;11.70;99.90
9837;DHT22;4957;51.412;6.724;2023-02-23T12:02:51;11.70;99.90
9837;DHT22;4957;51.412;6.724;2023-02-23T12:05:21;11.70;99.90
9837;DHT22;4957;51.412;6.724;2023-02-23T12:08:14;11.70;99.90
9837;DHT22;4957;51.412;6.724;2023-02-23T12:10:48;11.70;99.90
9837;DHT22;4957;51.412;6.724;2023-02-23T12:15:46;11.70;99.90
9837;DHT22;4957;51.412;6.724;2023-02-23T12:18:45;11.70;99.90
9837;DHT22;4957;51.412;6.724;2023-02-23T12:23:43;11.70;99.90
9837;DHT22;4957;51.412;6.724;2023-02-23T12:26:21;11.70;99.90
9837;DHT22;4957;51.412;6.724;2023-02-23T12:28:59;11.70;99.90
9837;DHT22;4957;51.412;6.724;2023-02-23T12:31:46;11.70;99.90
9837;DHT22;4957;51.412;6.724;2023-02-23T12:34:25;11.80;99.90
9837;DHT22;4957;51.412;6.724;2023-02-23T12:39:49;11.80;99.90
9837;DHT22;4957;51.412;6.724;2023-02-23T12:42:21;11.80;99.90
9837;DHT22;4957;51.412;6.724;2023-02-23T12:44:52;11.80;99.90
9837;DHT22;4957;51.412;6.724;2023-02-23T12:50:10;11.80;99.90
9837;DHT22;4957;51.412;6.724;2023-02-23T12:52:52;11.80;99.90
9837;DHT22;4957;51.412;6.724;2023-02-23T12:58:22;11.80;99.90
9837;DHT22;4957;51.412;6.724;2023-02-23T13:00:54;11.80;99.90
9837;DHT22;4957;51.412;6.724;2023-02-23T13:09:14;11.80;99.90
9837;DHT22;4957;51.412;6.724;2023-02-23T13:14:26;11.80;99.90
9837;DHT22;4957;51.412;6.724;2023-02-23T13:22:56;11.90;99.90
9837;DHT22;4957;51.412;6.724;2023-02-23T13:25:28;11.90;99.90
9837;DHT22;4957;51.412;6.724;2023-02-23T13:27:59;11.90;99.90
9837;DHT22;4957;51.412;6.724;2023-02-23T13:30:47;11.90;99.90
9837;DHT22;4957;51.412;6.724;2023-02-23T13:33:33;11.90;99.90
9837;DHT22;4957;51.412;6.724;2023-02-23T13:36:01;12.00;99.90
9837;DHT22;4957;51.412;6.724;2023-02-23T13:38:41;12.00;99.90
9837;DHT22;4957;51.412;6.724;2023-02-23T13:41:29;12.00;99.90
9837;DHT22;4957;51.412;6.724;2023-02-23T13:46:54;12.00;99.90
9837;DHT22;4957;51.412;6.724;2023-02-23T13:49:36;12.00;99.90
9837;DHT22;4957;51.412;6.724;2023-02-23T13:54:55;12.00;99.90
9837;DHT22;4957;51.412;6.724;2023-02-23T13:57:22;12.00;99.90
9837;DHT22;4957;51.412;6.724;2023-02-23T13:59:49;12.00;99.90
9837;DHT22;4957;51.412;6.724;2023-02-23T14:02:34;11.90;99.90
9837;DHT22;4957;51.412;6.724;2023-02-23T14:07:30;11.90;99.90
9837;DHT22;4957;51.412;6.724;2023-02-23T14:10:15;11.90;99.90
9837;DHT22;4957;51.412;6.724;2023-02-23T14:26:08;11.80;99.90
9837;DHT22;4957;51.412;6.724;2023-02-23T14:41:30;11.70;99.90
9837;DHT22;4957;51.412;6.724;2023-02-23T14:44:11;11.70;99.90
9837;DHT22;4957;51.412;6.724;2023-02-23T14:46:37;11.70;99.90
9837;DHT22;4957;51.412;6.724;2023-02-23T14:49:18;11.70;99.90
9837;DHT22;4957;51.412;6.724;2023-02-23T14:51:50;11.70;99.90
9837;DHT22;4957;51.412;6.724;2023-02-23T14:56:55;11.70;99.90
9837;DHT22;4957;51.412;6.724;2023-02-23T14:59:25;11.70;99.90
9837;DHT22;4957;51.412;6.724;2023-02-23T15:01:53;11.70;99.90
9837;DHT22;4957;51.412;6.724;2023-02-23T15:04:22;11.70;99.90
9837;DHT22;4957;51.412;6.724;2023-02-23T15:06:53;11.70;99.90
9837;DHT22;4957;51.412;6.724;2023-02-23T15:09:39;11.70;99.90
9837;DHT22;4957;51.412;6.724;2023-02-23T15:14:39;11.70;99.90
9837;DHT22;4957;51.412;6.724;2023-02-23T15:17:13;11.70;99.90
9837;DHT22;4957;51.412;6.724;2023-02-23T15:19:40;11.70;99.90
9837;DHT22;4957;51.412;6.724;2023-02-23T15:22:06;11.70;99.90
9837;DHT22;4957;51.412;6.724;2023-02-23T15:24:43;11.70;99.90
9837;DHT22;4957;51.412;6.724;2023-02-23T15:27:21;11.70;99.90
9837;DHT22;4957;51.412;6.724;2023-02-23T15:29:48;11.70;99.90
9837;DHT22;4957;51.412;6.724;2023-02-23T15:32:24;11.70;99.90
9837;DHT22;4957;51.412;6.724;2023-02-23T15:34:52;11.70;99.90
9837;DHT22;4957;51.412;6.724;2023-02-23T15:37:34;11.70;99.90
9837;DHT22;4957;51.412;6.724;2023-02-23T15:40:04;11.60;99.90
9837;DHT22;4957;51.412;6.724;2023-02-23T15:42:43;11.60;99.90
9837;DHT22;4957;51.412;6.724;2023-02-23T15:47:44;11.60;99.90
9837;DHT22;4957;51.412;6.724;2023-02-23T15:50:18;11.60;99.90
9837;DHT22;4957;51.412;6.724;2023-02-23T15:52:50;11.60;99.90
9837;DHT22;4957;51.412;6.724;2023-02-23T15:55:34;11.50;99.90
9837;DHT22;4957;51.412;6.724;2023-02-23T15:58:12;11.50;99.90
9837;DHT22;4957;51.412;6.724;2023-02-23T16:00:42;11.50;99.90
9837;DHT22;4957;51.412;6.724;2023-02-23T16:03:22;11.50;99.90
9837;DHT22;4957;51.412;6.724;2023-02-23T16:08:29;11.50;99.90
9837;DHT22;4957;51.412;6.724;2023-02-23T16:11:14;11.40;99.90
9837;DHT22;4957;51.412;6.724;2023-02-23T16:13:43;11.40;99.90
9837;DHT22;4957;51.412;6.724;2023-02-23T16:16:10;11.40;99.90
9837;DHT22;4957;51.412;6.724;2023-02-23T16:18:45;11.30;99.90
9837;DHT22;4957;51.412;6.724;2023-02-23T16:21:19;11.40;99.90
9837;DHT22;4957;51.412;6.724;2023-02-23T16:23:48;11.30;99.90
9837;DHT22;4957;51.412;6.724;2023-02-23T16:29:00;11.30;99.90
9837;DHT22;4957;51.412;6.724;2023-02-23T16:31:46;11.20;99.90
9837;DHT22;4957;51.412;6.724;2023-02-23T16:34:26;11.20;99.90
9837;DHT22;4957;51.412;6.724;2023-02-23T16:36:58;11.20;99.90
9837;DHT22;4957;51.412;6.724;2023-02-23T16:39:29;11.20;99.90
9837;DHT22;4957;51.412;6.724;2023-02-23T16:41:56;11.10;99.90
9837;DHT22;4957;51.412;6.724;2023-02-23T16:44:27;11.10;99.90
9837;DHT22;4957;51.412;6.724;2023-02-23T16:49:26;11.10;99.90
9837;DHT22;4957;51.412;6.724;2023-02-23T16:51:55;11.10;99.90
9837;DHT22;4957;51.412;6.724;2023-02-23T16:54:21;11.10;99.90
9837;DHT22;4957;51.412;6.724;2023-02-23T16:56:48;11.10;99.90
9837;DHT22;4957;51.412;6.724;2023-02-23T16:59:16;11.10;99.90
9837;DHT22;4957;51.412;6.724;2023-02-23T17:01:42;11.10;99.90
9837;DHT22;4957;51.412;6.724;2023-02-23T17:04:15;11.10;99.90
9837;DHT22;4957;51.412;6.724;2023-02-23T17:06:43;11.10;99.90
9837;DHT22;4957;51.412;6.724;2023-02-23T17:09:09;11.10;99.90
9837;DHT22;4957;51.412;6.724;2023-02-23T17:11:35;11.10;99.90
9837;DHT22;4957;51.412;6.724;2023-02-23T17:14:01;11.10;99.90
9837;DHT22;4957;51.412;6.724;2023-02-23T17:16:27;11.00;99.90
9837;DHT22;4957;51.412;6.724;2023-02-23T17:18:52;11.00;99.90
9837;DHT22;4957;51.412;6.724;2023-02-23T17:21:19;11.00;99.90
9837;DHT22;4957;51.412;6.724;2023-02-23T17:23:48;11.00;99.90
9837;DHT22;4957;51.412;6.724;2023-02-23T17:26:20;11.00;99.90
9837;DHT22;4957;51.412;6.724;2023-02-23T17:28:47;11.00;99.90
9837;DHT22;4957;51.412;6.724;2023-02-23T17:31:13;11.00;99.90
9837;DHT22;4957;51.412;6.724;2023-02-23T17:33:40;10.90;99.90
9837;DHT22;4957;51.412;6.724;2023-02-23T17:36:08;10.90;99.90
9837;DHT22;4957;51.412;6.724;2023-02-23T17:38:34;10.90;99.90
9837;DHT22;4957;51.412;6.724;2023-02-23T17:41:04;10.90;99.90
9837;DHT22;4957;51.412;6.724;2023-02-23T17:43:34;10.90;99.90
9837;DHT22;4957;51.412;6.724;2023-02-23T17:46:02;10.90;99.90
9837;DHT22;4957;51.412;6.724;2023-02-23T17:48:28;10.90;99.90
9837;DHT22;4957;51.412;6.724;2023-02-23T17:51:01;10.90;99.90
9837;DHT22;4957;51.412;6.724;2023-02-23T17:53:33;10.90;99.90
9837;DHT22;4957;51.412;6.724;2023-02-23T17:56:01;10.80;99.90
9837;DHT22;4957;51.412;6.724;2023-02-23T17:58:27;10.80;99.90
9837;DHT22;4957;51.412;6.724;2023-02-23T18:00:56;10.80;99.90
9837;DHT22;4957;51.412;6.724;2023-02-23T18:03:31;10.80;99.90
9837;DHT22;4957;51.412;6.724;2023-02-23T18:08:54;10.80;99.90
9837;DHT22;4957;51.412;6.724;2023-02-23T18:11:23;10.70;99.90
9837;DHT22;4957;51.412;6.724;2023-02-23T18:13:48;10.70;99.90
9837;DHT22;4957;51.412;6.724;2023-02-23T18:16:20;10.70;99.90
9837;DHT22;4957;51.412;6.724;2023-02-23T18:18:49;10.70;99.90
9837;DHT22;4957;51.412;6.724;2023-02-23T18:21:24;10.70;99.90
9837;DHT22;4957;51.412;6.724;2023-02-23T18:23:53;10.70;99.90
9837;DHT22;4957;51.412;6.724;2023-02-23T18:26:24;10.70;99.90
9837;DHT22;4957;51.412;6.724;2023-02-23T18:28:50;10.70;99.90
9837;DHT22;4957;51.412;6.724;2023-02-23T18:31:29;10.70;99.90
9837;DHT22;4957;51.412;6.724;2023-02-23T18:34:02;10.70;99.90
9837;DHT22;4957;51.412;6.724;2023-02-23T18:36:36;10.60;99.90
9837;DHT22;4957;51.412;6.724;2023-02-23T18:39:09;10.60;99.90
9837;DHT22;4957;51.412;6.724;2023-02-23T18:41:37;10.70;99.90
9837;DHT22;4957;51.412;6.724;2023-02-23T18:44:05;10.60;99.90
9837;DHT22;4957;51.412;6.724;2023-02-23T18:46:34;10.60;99.90
9837;DHT22;4957;51.412;6.724;2023-02-23T18:49:00;10.60;99.90
9837;DHT22;4957;51.412;6.724;2023-02-23T18:51:31;10.60;99.90
9837;DHT22;4957;51.412;6.724;2023-02-23T18:53:59;10.60;99.90
9837;DHT22;4957;51.412;6.724;2023-02-23T18:56:28;10.60;99.90
9837;DHT22;4957;51.412;6.724;2023-02-23T18:59:02;10.60;99.90
9837;DHT22;4957;51.412;6.724;2023-02-23T19:01:29;10.60;99.90
9837;DHT22;4957;51.412;6.724;2023-02-23T19:04:01;10.60;99.90